KMOB/MOB METAR and TAF weather

Enter ICAO airport designator
Station Type Date Time Source
KMOB METAR 2019/10/15 21:56 UTC NOAA

KMOB 152156Z 22009KT 7SM SCT033 BKN042 BKN080 29/23 A2986 RMK AO2 LTG DSNT N AND NW SLP107 CB DSNT N-NW T02890228


Station Type Date Time Source
KMOB Decoded METAR 2019/10/15 21:56 UTC NOAA

MOBILE REGIONAL AIRPORT, AL, United States (KMOB) 30-41N 88-14W 67M
Oct 15, 2019 - 05:56 PM EDT / 2019.10.15 2156 UTC
Wind: from the SW (220 degrees) at 10 MPH (9 KT):0
Visibility: 7 mile(s):0
Sky conditions: mostly cloudy
Weather: Cumulonimbus clouds, lightning observed
Temperature: 84.0 F (28.9 C)
Dew Point: 73.0 F (22.8 C)
Relative Humidity: 69%
Pressure (altimeter): 29.86 in. Hg (1011 hPa)
ob: KMOB 152156Z 22009KT 7SM SCT033 BKN042 BKN080 29/23 A2986 RMK AO2 LTG DSNT N AND NW SLP107 CB DSNT N-NW T02890228
cycle: 22

Station Type Date Time Source
KMOB TAF 2019/10/15 21:30 UTC NOAA

TAF
AMD KMOB 152129Z 1521/1618 21008KT P6SM VCTS SCT035CB BKN040 BKN090
TEMPO 1521/1523 4SM TSRA BKN025CB
FM160300 24007KT P6SM VCSH BKN015
FM160900 20005KT 5SM BR VCSH OVC010
FM161200 26003KT 5SM -TSRA BKN010CB
FM161500 30006KT 4SM BR OVC007

Example: see airport list